首页
METAR-TAF:

METAR-TAF

机场 :

貝爾格勒尼古拉·特斯拉機場

贝尔格莱德, 塞尔维亚

纬度: 44-49N, 经度: 020-17E, 海拔: 96米

当前天气观测

该预报发布于29分钟前的04:00 UTC
风速9节,风向北转东北
温度 11°C
湿度 100%
气压 1010 hPa
能见度10公里或以上
散云层高于400英尺
散云层高于4300英尺

METAR: LYBE 140400Z 03009KT 9999 SCT004 SCT043 11/11 Q1010 TEMPO BKN004

时间: 05:29 (04:29 UTC)

预报

该预报发布于5小时和29分钟前的23:00 UTC
预报有效从14日的 00点(UTC)到 14日的 24点(UTC)
风速8节,风向西转西北
能见度10公里或以上
散云层高于1500英尺
散云层高于4000英尺
短暂存在
从 14日的 00点(UTC)到 14日的 09点(UTC)
能見度: 5000
多云层高于500英尺
多云层高于3000英尺
成为
从 14日的 21点(UTC)到 14日的 23点(UTC)
能見度: 3000
轻雾

TAF: LYBE 132300Z 1400/1424 29008KT 9999 SCT015 SCT040 TX14/1413Z TN10/1424Z TEMPO 1400/1409 5000 RA BKN005 BKN030 BECMG 1421/1423 3000 BR

超过4000个机场的气象观测和天气预报(METAR&TAF报告)。

可查询的气象台以黄色和红色小点在地图上表示。

将鼠标移到小点上方,可查看气象台名称。

然后点击查看天气观测和预报。

如需切换地图:点击带黑十字的绿色按钮放大地图;点击带横线的绿色按钮缩小地图;或者点击绿色箭头查看邻近地区的地图。


METAR-TAF: